createdAt,value
2023-05-14T00:00:43.638Z,9.73
2023-05-14T00:03:14.020Z,9.69
2023-05-14T00:05:44.526Z,9.68
2023-05-14T00:08:14.939Z,9.62
2023-05-14T00:10:45.108Z,9.58
2023-05-14T00:13:15.299Z,9.53
2023-05-14T00:15:45.688Z,9.48
2023-05-14T00:18:16.114Z,9.45
2023-05-14T00:20:46.406Z,9.43
2023-05-14T00:23:17.740Z,9.39
2023-05-14T00:25:47.967Z,9.37
2023-05-14T00:28:18.454Z,9.36
2023-05-14T00:30:48.984Z,9.36
2023-05-14T00:33:19.691Z,9.37
2023-05-14T00:35:49.882Z,9.37
2023-05-14T00:38:20.210Z,9.38
2023-05-14T00:40:53.277Z,9.40
2023-05-14T00:43:24.180Z,9.41
2023-05-14T00:45:56.269Z,9.41
2023-05-14T00:48:26.970Z,9.43
2023-05-14T00:50:57.776Z,9.44
2023-05-14T00:53:29.371Z,9.46
2023-05-14T00:55:59.849Z,9.47
2023-05-14T00:58:29.949Z,9.47
2023-05-14T01:01:00.824Z,9.46
2023-05-14T01:03:33.651Z,9.42
2023-05-14T01:07:01.668Z,9.38
2023-05-14T01:09:38.218Z,9.33
2023-05-14T01:12:35.820Z,9.27
2023-05-14T01:15:29.014Z,9.20
2023-05-14T01:18:08.920Z,9.16
2023-05-14T01:20:39.253Z,9.11
2023-05-14T01:23:08.984Z,9.05
2023-05-14T01:25:39.048Z,9.02
2023-05-14T01:28:35.957Z,8.98
2023-05-14T01:31:28.114Z,8.95
2023-05-14T01:34:01.052Z,8.92
2023-05-14T01:36:33.197Z,8.89
2023-05-14T01:39:03.997Z,8.86
2023-05-14T01:41:34.645Z,8.83
2023-05-14T01:44:05.765Z,8.77
2023-05-14T01:46:36.310Z,8.75
2023-05-14T01:49:06.549Z,8.73
2023-05-14T01:51:37.969Z,8.72
2023-05-14T01:54:08.203Z,8.71
2023-05-14T01:56:38.417Z,8.72
2023-05-14T01:59:08.584Z,8.74
2023-05-14T02:01:38.905Z,8.81
2023-05-14T02:04:09.156Z,8.84
2023-05-14T02:06:39.533Z,8.88
2023-05-14T02:09:09.802Z,8.93
2023-05-14T02:11:40.050Z,8.96
2023-05-14T02:14:10.215Z,9.02
2023-05-14T02:16:40.809Z,9.08
2023-05-14T02:19:11.378Z,9.12
2023-05-14T02:21:41.591Z,9.15
2023-05-14T02:24:12.167Z,9.19
2023-05-14T02:26:42.598Z,9.19
2023-05-14T02:29:12.795Z,9.20
2023-05-14T02:31:43.864Z,9.21
2023-05-14T02:34:14.176Z,9.21
2023-05-14T02:36:44.388Z,9.21
2023-05-14T02:39:14.569Z,9.20
2023-05-14T02:41:44.796Z,9.21
2023-05-14T02:44:14.932Z,9.21
2023-05-14T02:46:45.243Z,9.21
2023-05-14T02:49:15.449Z,9.21
2023-05-14T02:51:45.652Z,9.23
2023-05-14T02:54:16.916Z,9.24
2023-05-14T02:56:47.407Z,9.26
2023-05-14T02:59:17.701Z,9.29
2023-05-14T03:01:48.201Z,9.31
2023-05-14T03:04:18.968Z,9.34
2023-05-14T03:06:49.233Z,9.38
2023-05-14T03:09:20.137Z,9.42
2023-05-14T03:11:51.127Z,9.48
2023-05-14T03:14:21.299Z,9.50
2023-05-14T03:16:51.571Z,9.53
2023-05-14T03:19:21.791Z,9.56
2023-05-14T03:21:51.977Z,9.60
2023-05-14T03:24:22.088Z,9.64
2023-05-14T03:26:52.280Z,9.70
2023-05-14T03:29:22.484Z,9.76
2023-05-14T03:31:53.186Z,9.84
2023-05-14T03:34:23.754Z,9.92
2023-05-14T03:36:51.753Z,9.98
2023-05-14T03:39:20.244Z,10.04
2023-05-14T03:41:49.099Z,10.08
2023-05-14T03:44:16.968Z,10.15
2023-05-14T03:46:45.562Z,10.24
2023-05-14T03:49:13.880Z,10.30
2023-05-14T03:51:42.401Z,10.34
2023-05-14T03:54:12.541Z,10.36
2023-05-14T03:56:42.706Z,10.33
2023-05-14T03:59:12.815Z,10.28
2023-05-14T04:01:41.353Z,10.26
2023-05-14T04:04:10.183Z,10.21
2023-05-14T04:06:39.189Z,10.16
2023-05-14T04:09:07.222Z,10.13
2023-05-14T04:11:37.910Z,10.08
2023-05-14T04:14:06.333Z,10.04
2023-05-14T04:16:36.569Z,9.98
2023-05-14T04:19:06.838Z,9.93
2023-05-14T04:21:36.996Z,9.92
2023-05-14T04:24:07.923Z,9.91
2023-05-14T04:26:38.233Z,9.95
2023-05-14T04:29:08.503Z,9.99
2023-05-14T04:31:37.174Z,10.05
2023-05-14T04:34:05.464Z,10.12
2023-05-14T04:36:33.911Z,10.17
2023-05-14T04:39:02.547Z,10.23
2023-05-14T04:41:30.944Z,10.31
2023-05-14T04:44:04.450Z,10.42
2023-05-14T04:46:34.690Z,10.51
2023-05-14T04:49:04.948Z,10.63
2023-05-14T04:51:35.093Z,10.78
2023-05-14T04:54:05.490Z,10.91
2023-05-14T04:56:35.737Z,11.03
2023-05-14T04:59:06.646Z,11.14
2023-05-14T05:01:36.904Z,11.25
2023-05-14T05:04:07.273Z,11.39
2023-05-14T05:06:37.672Z,11.44
2023-05-14T05:09:09.659Z,11.47
2023-05-14T05:11:39.807Z,11.51
2023-05-14T05:14:10.155Z,11.47
2023-05-14T05:16:40.649Z,11.45
2023-05-14T05:19:11.230Z,11.45
2023-05-14T05:21:41.965Z,11.43
2023-05-14T05:24:13.510Z,11.42
2023-05-14T05:26:43.777Z,11.41
2023-05-14T05:29:14.276Z,11.45
2023-05-14T05:31:44.763Z,11.52
2023-05-14T05:34:15.441Z,11.60
2023-05-14T05:36:45.855Z,11.67
2023-05-14T05:39:16.381Z,11.72
2023-05-14T05:41:46.599Z,11.81
2023-05-14T05:44:17.052Z,11.81
2023-05-14T05:46:47.236Z,11.88
2023-05-14T05:49:17.500Z,11.88
2023-05-14T05:51:47.635Z,11.97
2023-05-14T05:54:17.820Z,12.07
2023-05-14T05:56:47.932Z,12.19
2023-05-14T05:59:18.074Z,12.32
2023-05-14T06:01:48.337Z,12.44
2023-05-14T06:04:18.591Z,12.52
2023-05-14T06:06:48.741Z,12.69
2023-05-14T06:09:18.901Z,12.81
2023-05-14T06:11:49.099Z,13.03
2023-05-14T06:14:19.210Z,13.15
2023-05-14T06:16:49.397Z,13.30
2023-05-14T06:19:19.936Z,13.42
2023-05-14T06:21:50.249Z,13.39
2023-05-14T06:24:20.548Z,13.49
2023-05-14T06:26:50.771Z,13.57
2023-05-14T06:29:21.015Z,13.46
2023-05-14T06:31:51.185Z,13.42
2023-05-14T06:34:21.312Z,13.54
2023-05-14T06:36:51.456Z,13.58
2023-05-14T06:39:21.653Z,13.68
2023-05-14T06:41:51.887Z,13.82
2023-05-14T06:44:22.039Z,13.82
2023-05-14T06:46:52.269Z,13.95
2023-05-14T06:49:22.408Z,13.87
2023-05-14T06:51:52.537Z,13.84
2023-05-14T06:54:22.643Z,13.91
2023-05-14T06:56:52.874Z,14.03
2023-05-14T06:59:23.535Z,14.07
2023-05-14T07:01:53.729Z,14.20
2023-05-14T07:04:23.966Z,14.41
2023-05-14T07:06:54.223Z,14.70
2023-05-14T07:09:22.725Z,14.65
2023-05-14T07:11:51.108Z,14.61
2023-05-14T07:14:19.488Z,14.62
2023-05-14T07:16:47.957Z,14.76
2023-05-14T07:19:16.457Z,14.84
2023-05-14T07:21:44.715Z,14.95
2023-05-14T07:24:13.271Z,15.17
2023-05-14T07:26:41.622Z,15.26
2023-05-14T07:29:09.941Z,15.29
2023-05-14T07:31:38.425Z,15.46
2023-05-14T07:34:07.772Z,15.75
2023-05-14T07:36:35.273Z,15.98
2023-05-14T07:39:03.840Z,15.97
2023-05-14T07:41:32.063Z,16.16
2023-05-14T07:44:00.468Z,16.47
2023-05-14T07:46:28.904Z,16.48
2023-05-14T07:48:58.145Z,16.77
2023-05-14T07:51:28.575Z,17.02
2023-05-14T07:53:58.669Z,17.03
2023-05-14T07:56:28.789Z,16.87
2023-05-14T07:58:58.936Z,17.04
2023-05-14T08:01:29.016Z,17.48
2023-05-14T08:03:59.310Z,17.84
2023-05-14T08:06:29.749Z,17.88
2023-05-14T08:09:00.038Z,18.03
2023-05-14T08:11:30.140Z,18.32
2023-05-14T08:14:00.447Z,18.81
2023-05-14T08:16:30.649Z,19.08
2023-05-14T08:19:01.159Z,19.38
2023-05-14T08:25:56.590Z,19.47
2023-05-14T08:28:26.759Z,19.85
2023-05-14T08:30:56.874Z,20.41
2023-05-14T08:37:55.600Z,19.81
2023-05-14T08:40:31.101Z,19.74
2023-05-14T08:43:03.169Z,19.97
2023-05-14T08:45:38.223Z,20.29
2023-05-14T08:48:19.213Z,20.34
2023-05-14T09:08:43.228Z,21.07
2023-05-14T09:11:20.623Z,21.11
2023-05-14T09:13:50.942Z,21.25
2023-05-14T09:16:28.774Z,21.08
2023-05-14T09:18:59.675Z,21.24
2023-05-14T09:21:33.446Z,21.55
2023-05-14T09:24:04.416Z,21.66
2023-05-14T09:26:36.028Z,21.77
2023-05-14T09:29:06.026Z,21.42
2023-05-14T09:36:02.554Z,21.26
2023-05-14T09:38:34.207Z,21.79
2023-05-14T09:41:04.316Z,22.01
2023-05-14T09:43:34.404Z,22.14
2023-05-14T09:46:04.740Z,22.46
2023-05-14T09:48:34.970Z,22.31
2023-05-14T09:51:06.023Z,21.92
2023-05-14T09:53:36.082Z,21.87
2023-05-14T09:56:06.443Z,21.26
2023-05-14T09:58:36.657Z,20.72
2023-05-14T10:01:20.910Z,20.70
2023-05-14T10:04:24.411Z,20.10
2023-05-14T10:06:58.572Z,19.97
2023-05-14T10:09:30.503Z,19.98
2023-05-14T10:12:24.178Z,19.87
2023-05-14T10:15:03.789Z,19.38
2023-05-14T10:17:41.345Z,19.21
2023-05-14T10:20:17.512Z,19.10
2023-05-14T10:22:47.660Z,18.99
2023-05-14T10:25:17.513Z,18.88
2023-05-14T10:27:48.106Z,18.74
2023-05-14T10:30:26.035Z,18.69
2023-05-14T10:33:16.896Z,18.62
2023-05-14T10:36:07.688Z,18.49
2023-05-14T10:38:39.207Z,18.43
2023-05-14T10:41:21.639Z,18.39
2023-05-14T10:43:52.453Z,18.27
2023-05-14T10:46:21.097Z,18.22
2023-05-14T10:48:51.094Z,18.27
2023-05-14T10:51:23.212Z,18.20
2023-05-14T10:53:53.419Z,18.30
2023-05-14T10:56:24.466Z,18.31
2023-05-14T10:59:00.243Z,18.32
2023-05-14T11:01:32.188Z,18.38
2023-05-14T11:04:04.571Z,18.35
2023-05-14T11:06:33.243Z,18.42
2023-05-14T11:09:04.052Z,18.31
2023-05-14T11:11:35.494Z,18.28
2023-05-14T11:14:04.917Z,18.14
2023-05-14T11:16:35.273Z,18.10
2023-05-14T11:19:06.593Z,18.10
2023-05-14T11:21:36.694Z,18.08
2023-05-14T11:24:07.595Z,18.16
2023-05-14T11:26:36.140Z,18.31
2023-05-14T11:29:05.768Z,18.48
2023-05-14T11:31:36.621Z,18.99
2023-05-14T11:34:08.270Z,19.57
2023-05-14T11:36:37.993Z,20.14
2023-05-14T11:39:08.463Z,20.06
2023-05-14T11:41:46.272Z,19.58
2023-05-14T11:44:14.280Z,19.78
2023-05-14T11:46:59.672Z,19.79
2023-05-14T11:49:30.029Z,19.88
2023-05-14T11:52:06.813Z,19.92
2023-05-14T11:54:37.352Z,19.93
2023-05-14T11:57:15.669Z,19.91
2023-05-14T11:59:48.440Z,19.73
2023-05-14T12:02:19.993Z,19.44
2023-05-14T12:04:53.494Z,19.38
2023-05-14T12:07:23.808Z,19.33
2023-05-14T12:09:52.092Z,19.28
2023-05-14T12:12:23.752Z,19.17
2023-05-14T12:14:53.127Z,19.22
2023-05-14T12:17:23.921Z,19.14
2023-05-14T12:19:54.428Z,19.20
2023-05-14T12:22:24.076Z,19.28
2023-05-14T12:25:00.592Z,19.56
2023-05-14T12:27:30.855Z,19.80
2023-05-14T12:32:43.045Z,20.01
2023-05-14T12:35:13.216Z,20.14
2023-05-14T12:37:43.471Z,20.29
2023-05-14T12:40:14.096Z,20.30
2023-05-14T12:42:44.341Z,20.45
2023-05-14T12:45:14.619Z,20.41
2023-05-14T12:47:44.823Z,20.48
2023-05-14T12:50:15.045Z,20.27
2023-05-14T12:52:46.693Z,20.19
2023-05-14T12:55:17.167Z,20.14
2023-05-14T12:57:47.614Z,20.17
2023-05-14T13:00:18.399Z,20.04
2023-05-14T13:02:48.890Z,19.63
2023-05-14T13:05:19.121Z,19.72
2023-05-14T13:07:50.820Z,19.78
2023-05-14T13:10:21.246Z,19.87
2023-05-14T13:12:52.785Z,19.79
2023-05-14T13:15:26.243Z,19.73
2023-05-14T13:17:56.711Z,19.73
2023-05-14T13:20:27.766Z,19.69
2023-05-14T13:22:55.535Z,19.75
2023-05-14T13:25:24.435Z,19.82
2023-05-14T13:27:53.043Z,20.03
2023-05-14T13:30:21.915Z,19.86
2023-05-14T13:32:50.007Z,20.05
2023-05-14T13:35:19.354Z,20.10
2023-05-14T13:37:47.606Z,19.87
2023-05-14T13:40:17.454Z,19.44
2023-05-14T13:42:47.668Z,19.19
2023-05-14T13:45:16.081Z,19.08
2023-05-14T13:47:44.642Z,18.94
2023-05-14T13:50:13.482Z,18.81
2023-05-14T13:52:41.681Z,18.84
2023-05-14T13:55:10.302Z,18.79
2023-05-14T13:57:40.089Z,18.61
2023-05-14T14:00:11.724Z,18.54
2023-05-14T14:02:41.925Z,18.45
2023-05-14T14:05:12.171Z,18.46
2023-05-14T14:07:42.861Z,18.43
2023-05-14T14:10:12.876Z,18.47
2023-05-14T14:12:42.220Z,18.54
2023-05-14T14:15:51.883Z,18.69
2023-05-14T14:18:20.232Z,18.75
2023-05-14T14:20:50.855Z,18.76
2023-05-14T14:23:20.506Z,18.82
2023-05-14T14:25:48.946Z,18.89
2023-05-14T14:28:17.335Z,18.94
2023-05-14T14:30:45.961Z,18.99
2023-05-14T14:33:14.261Z,19.15
2023-05-14T14:35:42.705Z,19.14
2023-05-14T14:38:11.050Z,19.30
2023-05-14T14:40:39.629Z,19.33
2023-05-14T14:43:07.928Z,19.37
2023-05-14T14:45:36.414Z,19.38
2023-05-14T14:48:37.884Z,19.56
2023-05-14T14:51:09.222Z,19.70
2023-05-14T14:53:40.647Z,19.98
2023-05-14T14:56:10.781Z,19.83
2023-05-14T14:58:39.330Z,19.88
2023-05-14T15:01:07.765Z,20.37
2023-05-14T15:03:36.989Z,20.72
2023-05-14T15:06:04.676Z,21.20
2023-05-14T15:08:32.837Z,21.66
2023-05-14T15:11:01.437Z,22.15
2023-05-14T15:13:29.672Z,22.31
2023-05-14T15:15:58.253Z,22.13
2023-05-14T15:18:27.109Z,21.92
2023-05-14T15:20:57.003Z,22.00
2023-05-14T15:23:26.422Z,21.68
2023-05-14T15:25:54.773Z,21.73
2023-05-14T15:28:23.219Z,21.78
2023-05-14T15:30:51.786Z,21.55
2023-05-14T15:33:20.259Z,21.59
2023-05-14T15:35:49.682Z,21.72
2023-05-14T15:38:19.624Z,21.58
2023-05-14T15:40:51.057Z,22.18
2023-05-14T15:43:21.273Z,22.56
2023-05-14T15:45:51.084Z,22.26
2023-05-14T15:48:20.973Z,21.64
2023-05-14T15:50:54.017Z,21.59
2023-05-14T15:53:22.103Z,21.91
2023-05-14T15:55:52.847Z,22.24
2023-05-14T15:58:22.665Z,22.48
2023-05-14T16:00:52.276Z,22.33
2023-05-14T16:03:20.773Z,22.33
2023-05-14T16:05:49.319Z,22.36
2023-05-14T16:08:17.703Z,21.75
2023-05-14T16:10:47.522Z,21.65
2023-05-14T16:34:49.962Z,20.80
2023-05-14T16:37:20.774Z,20.53
2023-05-14T16:39:51.462Z,20.22
2023-05-14T16:42:21.473Z,19.99
2023-05-14T16:44:51.479Z,19.96
2023-05-14T16:47:20.066Z,20.08
2023-05-14T16:49:50.362Z,20.14
2023-05-14T16:52:18.269Z,20.17
2023-05-14T16:54:46.944Z,20.16
2023-05-14T16:57:15.858Z,20.02
2023-05-14T16:59:44.380Z,19.86
2023-05-14T17:02:12.880Z,19.92
2023-05-14T17:04:42.369Z,19.73
2023-05-14T17:07:10.526Z,19.70
2023-05-14T17:09:38.638Z,19.81
2023-05-14T17:12:13.118Z,19.85
2023-05-14T17:14:41.144Z,19.83
2023-05-14T17:17:09.572Z,19.99
2023-05-14T17:19:38.348Z,20.60
2023-05-14T17:22:07.703Z,21.20
2023-05-14T17:24:36.673Z,21.95
2023-05-14T17:27:05.363Z,22.17
2023-05-14T17:29:33.043Z,21.26
2023-05-14T17:32:03.625Z,20.65
2023-05-14T17:34:33.911Z,20.23
2023-05-14T17:37:04.293Z,20.04
2023-05-14T17:39:34.707Z,19.68
2023-05-14T17:42:07.901Z,19.23
2023-05-14T17:44:38.369Z,19.01
2023-05-14T17:47:09.455Z,18.80
2023-05-14T17:49:39.651Z,18.78
2023-05-14T17:52:09.851Z,18.54
2023-05-14T17:54:40.173Z,18.35
2023-05-14T17:57:10.890Z,18.40
2023-05-14T17:59:41.644Z,18.33
2023-05-14T18:02:11.889Z,18.14
2023-05-14T18:04:40.751Z,18.01
2023-05-14T18:07:08.862Z,17.87
2023-05-14T18:09:37.360Z,17.77
2023-05-14T18:12:09.847Z,17.70
2023-05-14T18:14:40.509Z,17.56
2023-05-14T18:17:11.645Z,17.46
2023-05-14T18:19:42.209Z,17.41
2023-05-14T18:22:12.114Z,17.27
2023-05-14T18:24:42.151Z,17.19
2023-05-14T18:27:12.202Z,17.11
2023-05-14T18:29:43.615Z,16.99
2023-05-14T18:32:13.152Z,16.98
2023-05-14T18:34:43.204Z,16.92
2023-05-14T18:37:12.988Z,16.79
2023-05-14T18:39:42.881Z,16.65
2023-05-14T18:42:16.780Z,16.52
2023-05-14T18:44:45.952Z,16.40
2023-05-14T18:47:16.149Z,16.31
2023-05-14T18:49:47.299Z,16.20
2023-05-14T18:52:17.491Z,16.08
2023-05-14T18:54:47.343Z,15.95
2023-05-14T18:57:17.278Z,15.81
2023-05-14T18:59:47.358Z,15.68
2023-05-14T19:02:17.748Z,15.53
2023-05-14T19:04:52.757Z,15.40
2023-05-14T19:07:23.603Z,15.24
2023-05-14T19:09:52.079Z,15.09
2023-05-14T19:12:22.111Z,14.93
2023-05-14T19:14:50.543Z,14.79
2023-05-14T19:17:20.525Z,14.66
2023-05-14T19:19:50.996Z,14.53
2023-05-14T19:22:19.898Z,14.41
2023-05-14T19:24:47.568Z,14.29
2023-05-14T19:27:17.505Z,14.16
2023-05-14T19:29:47.728Z,14.05
2023-05-14T19:32:17.373Z,13.92
2023-05-14T19:34:48.046Z,13.80
2023-05-14T19:37:17.608Z,13.71
2023-05-14T19:39:47.586Z,13.59
2023-05-14T19:42:17.787Z,13.50
2023-05-14T19:44:47.771Z,13.40
2023-05-14T19:47:16.258Z,13.29
2023-05-14T19:49:44.763Z,13.20
2023-05-14T19:52:13.070Z,13.10
2023-05-14T19:54:41.381Z,12.99
2023-05-14T19:57:10.477Z,12.92
2023-05-14T19:59:39.410Z,12.87
2023-05-14T20:02:06.757Z,12.81
2023-05-14T20:04:35.093Z,12.73
2023-05-14T20:07:03.744Z,12.68
2023-05-14T20:09:31.872Z,12.59
2023-05-14T20:12:00.281Z,12.53
2023-05-14T20:14:28.710Z,12.47
2023-05-14T20:16:58.059Z,12.40
2023-05-14T20:19:30.453Z,12.31
2023-05-14T20:22:00.169Z,12.26
2023-05-14T20:24:29.117Z,12.19
2023-05-14T20:26:57.101Z,12.13
2023-05-14T20:29:25.430Z,12.06
2023-05-14T20:31:53.717Z,12.00
2023-05-14T20:34:22.719Z,11.92
2023-05-14T20:36:52.512Z,11.83
2023-05-14T20:39:22.442Z,11.76
2023-05-14T20:41:52.410Z,11.70
2023-05-14T20:44:22.138Z,11.64
2023-05-14T20:46:51.426Z,11.58
2023-05-14T20:49:21.238Z,11.52
2023-05-14T20:51:50.987Z,11.48
2023-05-14T20:54:21.234Z,11.47
2023-05-14T20:56:50.859Z,11.44
2023-05-14T20:59:20.852Z,11.41
2023-05-14T21:01:51.600Z,11.41
2023-05-14T21:04:21.836Z,11.38
2023-05-14T21:06:52.375Z,11.37
2023-05-14T21:09:23.837Z,11.35
2023-05-14T21:11:56.727Z,11.32
2023-05-14T21:14:26.308Z,11.29
2023-05-14T21:16:56.241Z,11.23
2023-05-14T21:19:26.270Z,11.18
2023-05-14T21:21:56.054Z,11.11
2023-05-14T21:24:25.964Z,11.06
2023-05-14T21:26:56.039Z,10.99
2023-05-14T21:29:25.828Z,10.92
2023-05-14T21:31:56.234Z,10.87
2023-05-14T21:34:25.827Z,10.80
2023-05-14T21:36:56.092Z,10.73
2023-05-14T21:39:26.089Z,10.67
2023-05-14T21:41:55.895Z,10.59
2023-05-14T21:44:24.618Z,10.54
2023-05-14T21:46:54.911Z,10.48
2023-05-14T21:49:23.126Z,10.43
2023-05-14T21:51:54.288Z,10.36
2023-05-14T21:54:23.952Z,10.32
2023-05-14T21:56:52.469Z,10.26
2023-05-14T21:59:21.622Z,10.22
2023-05-14T22:02:06.115Z,10.17
2023-05-14T22:04:37.651Z,10.12
2023-05-14T22:07:08.081Z,10.09
2023-05-14T22:09:37.689Z,10.07
2023-05-14T22:12:09.655Z,10.06
2023-05-14T22:14:38.131Z,10.06
2023-05-14T22:17:07.259Z,10.06
2023-05-14T22:19:34.801Z,10.07
2023-05-14T22:22:04.795Z,10.10
2023-05-14T22:24:32.983Z,10.12
2023-05-14T22:27:01.530Z,10.13
2023-05-14T22:29:30.916Z,10.16
2023-05-14T22:31:59.273Z,10.22
2023-05-14T22:34:27.475Z,10.25
2023-05-14T22:36:56.261Z,10.27
2023-05-14T22:39:24.555Z,10.28
2023-05-14T22:41:55.300Z,10.31
2023-05-14T22:44:26.337Z,10.32
2023-05-14T22:46:57.294Z,10.32
2023-05-14T22:49:27.142Z,10.31
2023-05-14T22:51:57.049Z,10.31
2023-05-14T22:54:26.849Z,10.34
2023-05-14T22:56:56.660Z,10.35
2023-05-14T22:59:26.472Z,10.37
2023-05-14T23:01:56.486Z,10.38
2023-05-14T23:04:26.404Z,10.39
2023-05-14T23:06:57.801Z,10.41
2023-05-14T23:09:26.485Z,10.43
2023-05-14T23:11:56.472Z,10.44
2023-05-14T23:14:26.339Z,10.45
2023-05-14T23:16:56.621Z,10.48
2023-05-14T23:19:26.807Z,10.49
2023-05-14T23:21:58.441Z,10.52
2023-05-14T23:24:28.537Z,10.53
2023-05-14T23:26:58.643Z,10.55
2023-05-14T23:29:28.330Z,10.56
2023-05-14T23:31:58.152Z,10.56
2023-05-14T23:34:28.379Z,10.54
2023-05-14T23:36:58.223Z,10.51
2023-05-14T23:39:28.248Z,10.50
2023-05-14T23:41:58.161Z,10.47
2023-05-14T23:44:27.968Z,10.47
2023-05-14T23:46:58.129Z,10.37
2023-05-14T23:49:28.089Z,10.31
2023-05-14T23:51:58.448Z,10.26
2023-05-14T23:54:26.488Z,10.21
2023-05-14T23:56:55.113Z,10.15
2023-05-14T23:59:23.516Z,10.09
